sensor_id;sensor_type;location;lat;lon;timestamp;P1;durP1;ratioP1;P2;durP2;ratioP2
33066;SDS011;19428;49.024;8.366;2024-01-07T00:01:48;0.43;;;0.43;;
33066;SDS011;19428;49.024;8.366;2024-01-07T00:04:15;0.45;;;0.45;;
33066;SDS011;19428;49.024;8.366;2024-01-07T00:06:41;2.90;;;2.75;;
33066;SDS011;19428;49.024;8.366;2024-01-07T00:09:08;0.45;;;0.45;;
33066;SDS011;19428;49.024;8.366;2024-01-07T00:11:33;0.40;;;0.40;;
33066;SDS011;19428;49.024;8.366;2024-01-07T00:14:04;0.82;;;0.82;;
33066;SDS011;19428;49.024;8.366;2024-01-07T00:16:37;0.80;;;0.80;;
33066;SDS011;19428;49.024;8.366;2024-01-07T00:19:14;0.63;;;0.63;;
33066;SDS011;19428;49.024;8.366;2024-01-07T00:22:23;1.05;;;1.05;;
33066;SDS011;19428;49.024;8.366;2024-01-07T00:25:07;0.60;;;0.60;;
33066;SDS011;19428;49.024;8.366;2024-01-07T00:28:04;0.60;;;0.60;;
33066;SDS011;19428;49.024;8.366;2024-01-07T00:30:29;0.45;;;0.45;;
33066;SDS011;19428;49.024;8.366;2024-01-07T00:32:55;0.47;;;0.47;;
33066;SDS011;19428;49.024;8.366;2024-01-07T00:35:31;1.23;;;1.23;;
33066;SDS011;19428;49.024;8.366;2024-01-07T00:37:59;1.92;;;1.83;;
33066;SDS011;19428;49.024;8.366;2024-01-07T00:40:27;1.08;;;1.08;;
33066;SDS011;19428;49.024;8.366;2024-01-07T00:43:04;0.50;;;0.50;;
33066;SDS011;19428;49.024;8.366;2024-01-07T00:45:39;0.47;;;0.47;;
33066;SDS011;19428;49.024;8.366;2024-01-07T01:02:05;0.20;;;0.20;;
33066;SDS011;19428;49.024;8.366;2024-01-07T01:05:09;0.22;;;0.22;;
33066;SDS011;19428;49.024;8.366;2024-01-07T01:10:53;0.38;;;0.38;;
33066;SDS011;19428;49.024;8.366;2024-01-07T01:20:14;0.35;;;0.35;;
33066;SDS011;19428;49.024;8.366;2024-01-07T01:22:52;0.28;;;0.28;;
33066;SDS011;19428;49.024;8.366;2024-01-07T01:25:28;0.30;;;0.30;;
33066;SDS011;19428;49.024;8.366;2024-01-07T01:28:10;0.28;;;0.28;;
33066;SDS011;19428;49.024;8.366;2024-01-07T01:30:58;0.70;;;0.70;;
33066;SDS011;19428;49.024;8.366;2024-01-07T01:33:36;1.25;;;1.25;;
33066;SDS011;19428;49.024;8.366;2024-01-07T01:36:14;0.80;;;0.80;;
33066;SDS011;19428;49.024;8.366;2024-01-07T01:38:42;0.60;;;0.60;;
33066;SDS011;19428;49.024;8.366;2024-01-07T01:41:20;0.30;;;0.30;;
33066;SDS011;19428;49.024;8.366;2024-01-07T01:44:02;0.40;;;0.40;;
33066;SDS011;19428;49.024;8.366;2024-01-07T01:49:55;0.20;;;0.20;;
33066;SDS011;19428;49.024;8.366;2024-01-07T01:52:21;0.30;;;0.30;;
33066;SDS011;19428;49.024;8.366;2024-01-07T01:54:50;0.30;;;0.30;;
33066;SDS011;19428;49.024;8.366;2024-01-07T01:57:24;0.32;;;0.32;;
33066;SDS011;19428;49.024;8.366;2024-01-07T02:00:06;0.30;;;0.30;;
33066;SDS011;19428;49.024;8.366;2024-01-07T02:02:36;0.40;;;0.40;;
33066;SDS011;19428;49.024;8.366;2024-01-07T02:12:33;0.30;;;0.30;;
33066;SDS011;19428;49.024;8.366;2024-01-07T02:15:20;0.22;;;0.22;;
33066;SDS011;19428;49.024;8.366;2024-01-07T02:18:16;0.40;;;0.40;;
33066;SDS011;19428;49.024;8.366;2024-01-07T02:24:28;0.30;;;0.30;;
33066;SDS011;19428;49.024;8.366;2024-01-07T02:34:38;0.90;;;0.82;;
33066;SDS011;19428;49.024;8.366;2024-01-07T02:37:41;0.20;;;0.20;;
33066;SDS011;19428;49.024;8.366;2024-01-07T02:40:44;0.52;;;0.52;;
33066;SDS011;19428;49.024;8.366;2024-01-07T02:54:42;0.30;;;0.30;;
33066;SDS011;19428;49.024;8.366;2024-01-07T02:57:44;1.75;;;1.65;;
33066;SDS011;19428;49.024;8.366;2024-01-07T03:00:50;1.55;;;0.90;;
33066;SDS011;19428;49.024;8.366;2024-01-07T03:20:22;0.73;;;0.73;;
33066;SDS011;19428;49.024;8.366;2024-01-07T03:22:50;0.73;;;0.73;;
33066;SDS011;19428;49.024;8.366;2024-01-07T03:25:16;0.30;;;0.30;;
33066;SDS011;19428;49.024;8.366;2024-01-07T03:27:41;0.57;;;0.57;;
33066;SDS011;19428;49.024;8.366;2024-01-07T03:30:07;0.45;;;0.45;;
33066;SDS011;19428;49.024;8.366;2024-01-07T03:32:35;0.30;;;0.30;;
33066;SDS011;19428;49.024;8.366;2024-01-07T03:35:01;0.30;;;0.30;;
33066;SDS011;19428;49.024;8.366;2024-01-07T03:37:27;0.30;;;0.30;;
33066;SDS011;19428;49.024;8.366;2024-01-07T03:39:53;0.40;;;0.40;;
33066;SDS011;19428;49.024;8.366;2024-01-07T03:42:19;1.40;;;1.38;;
33066;SDS011;19428;49.024;8.366;2024-01-07T03:44:44;0.30;;;0.30;;
33066;SDS011;19428;49.024;8.366;2024-01-07T03:47:10;0.40;;;0.40;;
33066;SDS011;19428;49.024;8.366;2024-01-07T03:49:36;0.30;;;0.30;;
33066;SDS011;19428;49.024;8.366;2024-01-07T03:52:02;0.30;;;0.30;;
33066;SDS011;19428;49.024;8.366;2024-01-07T03:54:29;0.30;;;0.30;;
33066;SDS011;19428;49.024;8.366;2024-01-07T03:56:54;6.28;;;1.50;;
33066;SDS011;19428;49.024;8.366;2024-01-07T03:59:20;0.30;;;0.30;;
33066;SDS011;19428;49.024;8.366;2024-01-07T04:01:48;0.40;;;0.40;;
33066;SDS011;19428;49.024;8.366;2024-01-07T04:04:13;0.40;;;0.40;;
33066;SDS011;19428;49.024;8.366;2024-01-07T04:06:39;0.45;;;0.45;;
33066;SDS011;19428;49.024;8.366;2024-01-07T04:09:05;0.30;;;0.30;;
33066;SDS011;19428;49.024;8.366;2024-01-07T04:11:30;0.20;;;0.20;;
33066;SDS011;19428;49.024;8.366;2024-01-07T04:13:57;0.30;;;0.30;;
33066;SDS011;19428;49.024;8.366;2024-01-07T04:16:23;0.30;;;0.30;;
33066;SDS011;19428;49.024;8.366;2024-01-07T04:18:48;0.40;;;0.40;;
33066;SDS011;19428;49.024;8.366;2024-01-07T04:21:14;0.20;;;0.20;;
33066;SDS011;19428;49.024;8.366;2024-01-07T04:23:40;0.30;;;0.30;;
33066;SDS011;19428;49.024;8.366;2024-01-07T04:26:08;0.50;;;0.50;;
33066;SDS011;19428;49.024;8.366;2024-01-07T04:28:34;0.20;;;0.20;;
33066;SDS011;19428;49.024;8.366;2024-01-07T04:31:00;2.95;;;2.75;;
33066;SDS011;19428;49.024;8.366;2024-01-07T04:33:26;0.40;;;0.40;;
33066;SDS011;19428;49.024;8.366;2024-01-07T04:35:52;0.30;;;0.30;;
33066;SDS011;19428;49.024;8.366;2024-01-07T04:38:17;0.20;;;0.20;;
33066;SDS011;19428;49.024;8.366;2024-01-07T04:40:43;0.30;;;0.30;;
33066;SDS011;19428;49.024;8.366;2024-01-07T04:43:08;0.73;;;0.73;;
33066;SDS011;19428;49.024;8.366;2024-01-07T04:45:34;0.30;;;0.30;;
33066;SDS011;19428;49.024;8.366;2024-01-07T04:48:00;0.55;;;0.55;;
33066;SDS011;19428;49.024;8.366;2024-01-07T04:50:25;0.75;;;0.75;;
33066;SDS011;19428;49.024;8.366;2024-01-07T04:52:51;0.30;;;0.30;;
33066;SDS011;19428;49.024;8.366;2024-01-07T04:55:18;0.20;;;0.20;;
33066;SDS011;19428;49.024;8.366;2024-01-07T04:57:43;0.28;;;0.28;;
33066;SDS011;19428;49.024;8.366;2024-01-07T05:00:09;0.90;;;0.90;;
33066;SDS011;19428;49.024;8.366;2024-01-07T05:02:35;0.30;;;0.30;;
33066;SDS011;19428;49.024;8.366;2024-01-07T05:05:01;0.28;;;0.28;;
33066;SDS011;19428;49.024;8.366;2024-01-07T05:07:27;0.63;;;0.63;;
33066;SDS011;19428;49.024;8.366;2024-01-07T05:09:52;0.25;;;0.25;;
33066;SDS011;19428;49.024;8.366;2024-01-07T05:12:18;0.40;;;0.40;;
33066;SDS011;19428;49.024;8.366;2024-01-07T05:14:43;1.65;;;0.85;;
33066;SDS011;19428;49.024;8.366;2024-01-07T05:17:11;0.45;;;0.45;;
33066;SDS011;19428;49.024;8.366;2024-01-07T05:19:39;0.40;;;0.40;;
33066;SDS011;19428;49.024;8.366;2024-01-07T05:22:05;0.20;;;0.20;;
33066;SDS011;19428;49.024;8.366;2024-01-07T05:24:31;0.30;;;0.30;;
33066;SDS011;19428;49.024;8.366;2024-01-07T05:26:57;0.30;;;0.30;;
33066;SDS011;19428;49.024;8.366;2024-01-07T05:29:22;1.63;;;1.55;;
33066;SDS011;19428;49.024;8.366;2024-01-07T05:31:50;0.75;;;0.75;;
33066;SDS011;19428;49.024;8.366;2024-01-07T05:34:16;0.50;;;0.50;;
33066;SDS011;19428;49.024;8.366;2024-01-07T05:36:42;0.30;;;0.30;;
33066;SDS011;19428;49.024;8.366;2024-01-07T05:39:07;0.40;;;0.40;;
33066;SDS011;19428;49.024;8.366;2024-01-07T05:41:33;0.20;;;0.20;;
33066;SDS011;19428;49.024;8.366;2024-01-07T05:44:01;0.77;;;0.77;;
33066;SDS011;19428;49.024;8.366;2024-01-07T05:46:27;0.45;;;0.45;;
33066;SDS011;19428;49.024;8.366;2024-01-07T05:48:52;1.02;;;1.02;;
33066;SDS011;19428;49.024;8.366;2024-01-07T05:51:18;0.82;;;0.82;;
33066;SDS011;19428;49.024;8.366;2024-01-07T05:53:44;0.75;;;0.73;;
33066;SDS011;19428;49.024;8.366;2024-01-07T05:56:10;0.52;;;0.52;;
33066;SDS011;19428;49.024;8.366;2024-01-07T05:58:37;0.40;;;0.40;;
33066;SDS011;19428;49.024;8.366;2024-01-07T06:01:02;0.30;;;0.30;;
33066;SDS011;19428;49.024;8.366;2024-01-07T06:03:28;0.20;;;0.20;;
33066;SDS011;19428;49.024;8.366;2024-01-07T06:05:53;0.43;;;0.43;;
33066;SDS011;19428;49.024;8.366;2024-01-07T06:08:19;0.35;;;0.35;;
33066;SDS011;19428;49.024;8.366;2024-01-07T06:10:45;0.30;;;0.30;;
33066;SDS011;19428;49.024;8.366;2024-01-07T06:13:10;1.85;;;1.75;;
33066;SDS011;19428;49.024;8.366;2024-01-07T06:15:36;0.25;;;0.25;;
33066;SDS011;19428;49.024;8.366;2024-01-07T06:18:02;0.45;;;0.45;;
33066;SDS011;19428;49.024;8.366;2024-01-07T06:20:27;0.30;;;0.30;;
33066;SDS011;19428;49.024;8.366;2024-01-07T06:22:53;0.70;;;0.70;;
33066;SDS011;19428;49.024;8.366;2024-01-07T06:25:19;0.30;;;0.30;;
33066;SDS011;19428;49.024;8.366;2024-01-07T06:27:45;0.30;;;0.30;;
33066;SDS011;19428;49.024;8.366;2024-01-07T06:30:11;0.52;;;0.52;;
33066;SDS011;19428;49.024;8.366;2024-01-07T06:32:41;0.30;;;0.30;;
33066;SDS011;19428;49.024;8.366;2024-01-07T06:35:08;0.30;;;0.30;;
33066;SDS011;19428;49.024;8.366;2024-01-07T06:37:34;0.30;;;0.30;;
33066;SDS011;19428;49.024;8.366;2024-01-07T06:39:59;0.30;;;0.30;;
33066;SDS011;19428;49.024;8.366;2024-01-07T06:42:25;4.85;;;2.47;;
33066;SDS011;19428;49.024;8.366;2024-01-07T06:44:51;0.30;;;0.30;;
33066;SDS011;19428;49.024;8.366;2024-01-07T06:47:17;0.73;;;0.73;;
33066;SDS011;19428;49.024;8.366;2024-01-07T06:49:43;0.38;;;0.38;;
33066;SDS011;19428;49.024;8.366;2024-01-07T06:52:10;0.50;;;0.50;;
33066;SDS011;19428;49.024;8.366;2024-01-07T06:54:35;0.40;;;0.40;;
33066;SDS011;19428;49.024;8.366;2024-01-07T06:57:04;0.30;;;0.30;;
33066;SDS011;19428;49.024;8.366;2024-01-07T06:59:29;0.32;;;0.32;;
33066;SDS011;19428;49.024;8.366;2024-01-07T07:01:55;1.10;;;1.10;;
33066;SDS011;19428;49.024;8.366;2024-01-07T07:04:21;1.20;;;1.15;;
33066;SDS011;19428;49.024;8.366;2024-01-07T07:06:47;0.38;;;0.38;;
33066;SDS011;19428;49.024;8.366;2024-01-07T07:09:13;0.40;;;0.40;;
33066;SDS011;19428;49.024;8.366;2024-01-07T07:11:40;0.25;;;0.25;;
33066;SDS011;19428;49.024;8.366;2024-01-07T07:14:05;0.70;;;0.70;;
33066;SDS011;19428;49.024;8.366;2024-01-07T07:16:31;0.25;;;0.25;;
33066;SDS011;19428;49.024;8.366;2024-01-07T07:18:57;0.30;;;0.30;;
33066;SDS011;19428;49.024;8.366;2024-01-07T07:21:22;0.30;;;0.30;;
33066;SDS011;19428;49.024;8.366;2024-01-07T07:23:48;0.30;;;0.30;;
33066;SDS011;19428;49.024;8.366;2024-01-07T07:26:14;0.75;;;0.75;;
33066;SDS011;19428;49.024;8.366;2024-01-07T07:28:39;0.22;;;0.22;;
33066;SDS011;19428;49.024;8.366;2024-01-07T07:31:05;0.28;;;0.28;;
33066;SDS011;19428;49.024;8.366;2024-01-07T07:33:33;0.20;;;0.20;;
33066;SDS011;19428;49.024;8.366;2024-01-07T07:35:58;0.28;;;0.28;;
33066;SDS011;19428;49.024;8.366;2024-01-07T07:38:27;1.05;;;1.05;;
33066;SDS011;19428;49.024;8.366;2024-01-07T07:40:53;0.20;;;0.20;;
33066;SDS011;19428;49.024;8.366;2024-01-07T07:43:19;0.20;;;0.20;;
33066;SDS011;19428;49.024;8.366;2024-01-07T07:45:45;0.20;;;0.20;;
33066;SDS011;19428;49.024;8.366;2024-01-07T07:48:13;1.20;;;1.20;;
33066;SDS011;19428;49.024;8.366;2024-01-07T07:50:39;1.20;;;1.20;;
33066;SDS011;19428;49.024;8.366;2024-01-07T07:53:08;0.50;;;0.50;;
33066;SDS011;19428;49.024;8.366;2024-01-07T07:55:33;0.50;;;0.50;;
33066;SDS011;19428;49.024;8.366;2024-01-07T07:57:59;0.70;;;0.70;;
33066;SDS011;19428;49.024;8.366;2024-01-07T08:00:25;0.82;;;0.82;;
33066;SDS011;19428;49.024;8.366;2024-01-07T08:02:50;0.40;;;0.40;;
33066;SDS011;19428;49.024;8.366;2024-01-07T08:05:16;0.22;;;0.22;;
33066;SDS011;19428;49.024;8.366;2024-01-07T08:07:42;0.20;;;0.20;;
33066;SDS011;19428;49.024;8.366;2024-01-07T08:10:08;1.55;;;0.75;;
33066;SDS011;19428;49.024;8.366;2024-01-07T08:12:33;0.70;;;0.70;;
33066;SDS011;19428;49.024;8.366;2024-01-07T08:15:03;2.15;;;2.05;;
33066;SDS011;19428;49.024;8.366;2024-01-07T08:17:30;0.40;;;0.40;;
33066;SDS011;19428;49.024;8.366;2024-01-07T08:19:55;0.30;;;0.30;;
33066;SDS011;19428;49.024;8.366;2024-01-07T08:22:21;3.20;;;1.15;;
33066;SDS011;19428;49.024;8.366;2024-01-07T08:24:47;0.30;;;0.30;;
33066;SDS011;19428;49.024;8.366;2024-01-07T08:27:12;0.65;;;0.65;;
33066;SDS011;19428;49.024;8.366;2024-01-07T08:29:38;0.30;;;0.30;;
33066;SDS011;19428;49.024;8.366;2024-01-07T08:32:04;8.10;;;7.90;;
33066;SDS011;19428;49.024;8.366;2024-01-07T08:34:30;9.70;;;9.40;;
33066;SDS011;19428;49.024;8.366;2024-01-07T08:36:55;0.77;;;0.77;;
33066;SDS011;19428;49.024;8.366;2024-01-07T08:39:21;0.30;;;0.30;;
33066;SDS011;19428;49.024;8.366;2024-01-07T08:41:47;0.30;;;0.30;;
33066;SDS011;19428;49.024;8.366;2024-01-07T08:44:15;1.15;;;1.15;;
33066;SDS011;19428;49.024;8.366;2024-01-07T08:46:45;43.15;;;41.30;;
33066;SDS011;19428;49.024;8.366;2024-01-07T08:49:16;44.97;;;43.15;;
33066;SDS011;19428;49.024;8.366;2024-01-07T08:51:44;34.75;;;33.40;;
33066;SDS011;19428;49.024;8.366;2024-01-07T08:54:12;41.30;;;39.65;;
33066;SDS011;19428;49.024;8.366;2024-01-07T08:56:38;42.17;;;40.47;;
33066;SDS011;19428;49.024;8.366;2024-01-07T08:59:04;0.30;;;0.30;;
33066;SDS011;19428;49.024;8.366;2024-01-07T09:01:30;0.32;;;0.32;;
33066;SDS011;19428;49.024;8.366;2024-01-07T09:04:03;0.30;;;0.30;;
33066;SDS011;19428;49.024;8.366;2024-01-07T09:06:29;0.40;;;0.40;;
33066;SDS011;19428;49.024;8.366;2024-01-07T09:08:57;1.05;;;1.05;;
33066;SDS011;19428;49.024;8.366;2024-01-07T09:11:26;0.28;;;0.28;;
33066;SDS011;19428;49.024;8.366;2024-01-07T09:13:59;0.50;;;0.50;;
33066;SDS011;19428;49.024;8.366;2024-01-07T09:16:25;0.65;;;0.65;;
33066;SDS011;19428;49.024;8.366;2024-01-07T09:18:51;0.88;;;0.88;;
33066;SDS011;19428;49.024;8.366;2024-01-07T09:21:17;0.45;;;0.45;;
33066;SDS011;19428;49.024;8.366;2024-01-07T09:23:43;0.30;;;0.30;;
33066;SDS011;19428;49.024;8.366;2024-01-07T09:26:09;0.30;;;0.30;;
33066;SDS011;19428;49.024;8.366;2024-01-07T09:28:35;1.20;;;1.20;;
33066;SDS011;19428;49.024;8.366;2024-01-07T09:31:00;0.40;;;0.40;;
33066;SDS011;19428;49.024;8.366;2024-01-07T09:33:26;1.55;;;1.45;;
33066;SDS011;19428;49.024;8.366;2024-01-07T09:35:52;2.05;;;1.95;;
33066;SDS011;19428;49.024;8.366;2024-01-07T09:38:19;0.95;;;0.93;;
33066;SDS011;19428;49.024;8.366;2024-01-07T09:40:45;1.25;;;1.25;;
33066;SDS011;19428;49.024;8.366;2024-01-07T09:43:10;2.67;;;2.10;;
33066;SDS011;19428;49.024;8.366;2024-01-07T09:45:37;4.07;;;3.72;;
33066;SDS011;19428;49.024;8.366;2024-01-07T09:48:04;4.35;;;2.88;;
33066;SDS011;19428;49.024;8.366;2024-01-07T09:50:31;1.10;;;1.10;;
33066;SDS011;19428;49.024;8.366;2024-01-07T09:52:57;0.32;;;0.32;;
33066;SDS011;19428;49.024;8.366;2024-01-07T09:55:27;0.28;;;0.28;;
33066;SDS011;19428;49.024;8.366;2024-01-07T09:58:05;0.30;;;0.30;;
33066;SDS011;19428;49.024;8.366;2024-01-07T10:00:31;1.70;;;1.70;;
33066;SDS011;19428;49.024;8.366;2024-01-07T10:02:58;0.35;;;0.35;;
33066;SDS011;19428;49.024;8.366;2024-01-07T10:05:34;1.33;;;1.15;;
33066;SDS011;19428;49.024;8.366;2024-01-07T10:08:18;1.50;;;1.50;;
33066;SDS011;19428;49.024;8.366;2024-01-07T10:10:45;0.55;;;0.55;;
33066;SDS011;19428;49.024;8.366;2024-01-07T10:13:10;1.27;;;1.27;;
33066;SDS011;19428;49.024;8.366;2024-01-07T10:15:36;1.08;;;1.08;;
33066;SDS011;19428;49.024;8.366;2024-01-07T10:18:05;0.60;;;0.60;;
33066;SDS011;19428;49.024;8.366;2024-01-07T10:20:32;0.73;;;0.73;;
33066;SDS011;19428;49.024;8.366;2024-01-07T10:22:59;0.57;;;0.57;;
33066;SDS011;19428;49.024;8.366;2024-01-07T10:25:30;0.45;;;0.45;;
33066;SDS011;19428;49.024;8.366;2024-01-07T10:28:00;0.82;;;0.82;;
33066;SDS011;19428;49.024;8.366;2024-01-07T10:30:26;1.35;;;1.35;;
33066;SDS011;19428;49.024;8.366;2024-01-07T10:32:57;0.38;;;0.38;;
33066;SDS011;19428;49.024;8.366;2024-01-07T10:35:26;0.45;;;0.45;;
33066;SDS011;19428;49.024;8.366;2024-01-07T10:37:54;0.47;;;0.47;;
33066;SDS011;19428;49.024;8.366;2024-01-07T10:40:20;2.85;;;2.75;;
33066;SDS011;19428;49.024;8.366;2024-01-07T10:42:45;0.50;;;0.50;;
33066;SDS011;19428;49.024;8.366;2024-01-07T10:45:13;1.30;;;1.30;;
33066;SDS011;19428;49.024;8.366;2024-01-07T10:47:39;1.02;;;1.02;;
33066;SDS011;19428;49.024;8.366;2024-01-07T10:50:06;0.52;;;0.52;;
33066;SDS011;19428;49.024;8.366;2024-01-07T10:52:36;0.68;;;0.68;;
33066;SDS011;19428;49.024;8.366;2024-01-07T10:55:08;1.08;;;1.08;;
33066;SDS011;19428;49.024;8.366;2024-01-07T11:00:12;1.80;;;1.80;;
33066;SDS011;19428;49.024;8.366;2024-01-07T11:07:55;0.30;;;0.30;;
33066;SDS011;19428;49.024;8.366;2024-01-07T11:10:34;0.68;;;0.68;;
33066;SDS011;19428;49.024;8.366;2024-01-07T11:13:03;0.30;;;0.30;;
33066;SDS011;19428;49.024;8.366;2024-01-07T11:18:24;0.82;;;0.82;;
33066;SDS011;19428;49.024;8.366;2024-01-07T11:20:57;0.40;;;0.40;;
33066;SDS011;19428;49.024;8.366;2024-01-07T11:23:28;0.30;;;0.30;;
33066;SDS011;19428;49.024;8.366;2024-01-07T11:25:58;0.20;;;0.20;;
33066;SDS011;19428;49.024;8.366;2024-01-07T11:31:09;0.30;;;0.30;;
33066;SDS011;19428;49.024;8.366;2024-01-07T11:33:38;0.30;;;0.30;;
33066;SDS011;19428;49.024;8.366;2024-01-07T11:36:04;0.30;;;0.30;;
33066;SDS011;19428;49.024;8.366;2024-01-07T11:38:30;0.30;;;0.30;;
33066;SDS011;19428;49.024;8.366;2024-01-07T11:40:56;0.30;;;0.30;;
33066;SDS011;19428;49.024;8.366;2024-01-07T11:43:23;0.38;;;0.38;;
33066;SDS011;19428;49.024;8.366;2024-01-07T11:45:50;0.30;;;0.30;;
33066;SDS011;19428;49.024;8.366;2024-01-07T11:48:16;0.60;;;0.60;;
33066;SDS011;19428;49.024;8.366;2024-01-07T11:50:42;0.30;;;0.30;;
33066;SDS011;19428;49.024;8.366;2024-01-07T11:53:08;0.30;;;0.30;;
33066;SDS011;19428;49.024;8.366;2024-01-07T11:55:36;0.30;;;0.30;;
33066;SDS011;19428;49.024;8.366;2024-01-07T11:58:01;0.60;;;0.60;;
33066;SDS011;19428;49.024;8.366;2024-01-07T12:00:30;0.65;;;0.65;;
33066;SDS011;19428;49.024;8.366;2024-01-07T12:03:02;1.27;;;1.27;;
33066;SDS011;19428;49.024;8.366;2024-01-07T12:05:29;0.40;;;0.40;;
33066;SDS011;19428;49.024;8.366;2024-01-07T12:07:56;0.30;;;0.30;;
33066;SDS011;19428;49.024;8.366;2024-01-07T12:10:22;0.60;;;0.60;;
33066;SDS011;19428;49.024;8.366;2024-01-07T12:12:48;0.30;;;0.30;;
33066;SDS011;19428;49.024;8.366;2024-01-07T12:15:16;0.60;;;0.60;;
33066;SDS011;19428;49.024;8.366;2024-01-07T12:17:48;0.30;;;0.30;;
33066;SDS011;19428;49.024;8.366;2024-01-07T12:20:21;0.38;;;0.38;;
33066;SDS011;19428;49.024;8.366;2024-01-07T12:22:46;0.30;;;0.30;;
33066;SDS011;19428;49.024;8.366;2024-01-07T12:25:12;0.30;;;0.30;;
33066;SDS011;19428;49.024;8.366;2024-01-07T12:27:38;0.30;;;0.30;;
33066;SDS011;19428;49.024;8.366;2024-01-07T12:30:06;0.57;;;0.57;;
33066;SDS011;19428;49.024;8.366;2024-01-07T12:32:32;0.85;;;0.85;;
33066;SDS011;19428;49.024;8.366;2024-01-07T12:34:58;0.65;;;0.65;;
33066;SDS011;19428;49.024;8.366;2024-01-07T12:37:27;0.47;;;0.47;;
33066;SDS011;19428;49.024;8.366;2024-01-07T12:39:53;0.30;;;0.30;;
33066;SDS011;19428;49.024;8.366;2024-01-07T12:42:21;0.30;;;0.30;;
33066;SDS011;19428;49.024;8.366;2024-01-07T12:44:50;0.32;;;0.32;;
33066;SDS011;19428;49.024;8.366;2024-01-07T12:47:16;0.38;;;0.38;;
33066;SDS011;19428;49.024;8.366;2024-01-07T12:49:41;0.50;;;0.50;;
33066;SDS011;19428;49.024;8.366;2024-01-07T12:52:07;0.40;;;0.40;;
33066;SDS011;19428;49.024;8.366;2024-01-07T12:54:34;0.40;;;0.40;;
33066;SDS011;19428;49.024;8.366;2024-01-07T12:56:59;0.30;;;0.30;;
33066;SDS011;19428;49.024;8.366;2024-01-07T12:59:25;0.40;;;0.40;;
33066;SDS011;19428;49.024;8.366;2024-01-07T13:01:51;0.32;;;0.32;;
33066;SDS011;19428;49.024;8.366;2024-01-07T13:04:17;0.70;;;0.70;;
33066;SDS011;19428;49.024;8.366;2024-01-07T13:06:44;0.40;;;0.40;;
33066;SDS011;19428;49.024;8.366;2024-01-07T13:09:11;0.38;;;0.38;;
33066;SDS011;19428;49.024;8.366;2024-01-07T13:11:37;0.38;;;0.38;;
33066;SDS011;19428;49.024;8.366;2024-01-07T13:14:03;0.30;;;0.30;;
33066;SDS011;19428;49.024;8.366;2024-01-07T13:16:28;0.40;;;0.40;;
33066;SDS011;19428;49.024;8.366;2024-01-07T13:18:54;0.40;;;0.40;;
33066;SDS011;19428;49.024;8.366;2024-01-07T13:21:20;0.50;;;0.50;;
33066;SDS011;19428;49.024;8.366;2024-01-07T13:23:46;0.40;;;0.40;;
33066;SDS011;19428;49.024;8.366;2024-01-07T13:26:12;0.40;;;0.40;;
33066;SDS011;19428;49.024;8.366;2024-01-07T13:28:38;0.35;;;0.35;;
33066;SDS011;19428;49.024;8.366;2024-01-07T13:31:04;3.35;;;1.52;;
33066;SDS011;19428;49.024;8.366;2024-01-07T13:33:31;0.35;;;0.35;;
33066;SDS011;19428;49.024;8.366;2024-01-07T13:35:57;0.30;;;0.30;;
33066;SDS011;19428;49.024;8.366;2024-01-07T13:38:23;0.38;;;0.38;;
33066;SDS011;19428;49.024;8.366;2024-01-07T13:40:48;0.30;;;0.30;;
33066;SDS011;19428;49.024;8.366;2024-01-07T13:43:15;0.38;;;0.38;;
33066;SDS011;19428;49.024;8.366;2024-01-07T13:45:40;0.40;;;0.40;;
33066;SDS011;19428;49.024;8.366;2024-01-07T13:48:06;0.35;;;0.35;;
33066;SDS011;19428;49.024;8.366;2024-01-07T13:50:32;0.40;;;0.40;;
33066;SDS011;19428;49.024;8.366;2024-01-07T13:52:58;0.32;;;0.32;;
33066;SDS011;19428;49.024;8.366;2024-01-07T13:55:23;0.40;;;0.40;;
33066;SDS011;19428;49.024;8.366;2024-01-07T13:57:49;0.30;;;0.30;;
33066;SDS011;19428;49.024;8.366;2024-01-07T14:00:14;1.15;;;1.15;;
33066;SDS011;19428;49.024;8.366;2024-01-07T14:02:43;0.30;;;0.30;;
33066;SDS011;19428;49.024;8.366;2024-01-07T14:05:10;0.30;;;0.30;;
33066;SDS011;19428;49.024;8.366;2024-01-07T14:07:37;0.40;;;0.40;;
33066;SDS011;19428;49.024;8.366;2024-01-07T14:10:03;0.30;;;0.30;;
33066;SDS011;19428;49.024;8.366;2024-01-07T14:12:32;0.50;;;0.50;;
33066;SDS011;19428;49.024;8.366;2024-01-07T14:14:58;0.90;;;0.90;;
33066;SDS011;19428;49.024;8.366;2024-01-07T14:17:28;1.15;;;1.15;;
33066;SDS011;19428;49.024;8.366;2024-01-07T14:19:53;0.60;;;0.60;;
33066;SDS011;19428;49.024;8.366;2024-01-07T14:22:19;1.17;;;1.17;;
33066;SDS011;19428;49.024;8.366;2024-01-07T14:24:46;0.40;;;0.40;;
33066;SDS011;19428;49.024;8.366;2024-01-07T14:27:12;4.75;;;3.70;;
33066;SDS011;19428;49.024;8.366;2024-01-07T14:29:39;0.30;;;0.30;;
33066;SDS011;19428;49.024;8.366;2024-01-07T14:32:05;0.32;;;0.32;;
33066;SDS011;19428;49.024;8.366;2024-01-07T14:34:31;0.30;;;0.30;;
33066;SDS011;19428;49.024;8.366;2024-01-07T14:36:57;0.50;;;0.50;;
33066;SDS011;19428;49.024;8.366;2024-01-07T14:39:23;0.50;;;0.50;;
33066;SDS011;19428;49.024;8.366;2024-01-07T14:41:48;0.30;;;0.30;;
33066;SDS011;19428;49.024;8.366;2024-01-07T14:44:14;0.60;;;0.60;;
33066;SDS011;19428;49.024;8.366;2024-01-07T14:46:39;0.38;;;0.38;;
33066;SDS011;19428;49.024;8.366;2024-01-07T14:49:05;0.75;;;0.75;;
33066;SDS011;19428;49.024;8.366;2024-01-07T14:51:32;0.30;;;0.30;;
33066;SDS011;19428;49.024;8.366;2024-01-07T14:53:57;0.40;;;0.40;;
33066;SDS011;19428;49.024;8.366;2024-01-07T14:56:23;0.30;;;0.30;;
33066;SDS011;19428;49.024;8.366;2024-01-07T14:58:48;0.40;;;0.40;;
33066;SDS011;19428;49.024;8.366;2024-01-07T15:01:14;0.30;;;0.30;;
33066;SDS011;19428;49.024;8.366;2024-01-07T15:03:40;0.32;;;0.32;;
33066;SDS011;19428;49.024;8.366;2024-01-07T15:06:06;0.40;;;0.40;;
33066;SDS011;19428;49.024;8.366;2024-01-07T15:08:34;0.93;;;0.93;;
33066;SDS011;19428;49.024;8.366;2024-01-07T15:10:59;0.40;;;0.40;;
33066;SDS011;19428;49.024;8.366;2024-01-07T15:13:25;0.30;;;0.30;;
33066;SDS011;19428;49.024;8.366;2024-01-07T15:15:52;0.30;;;0.30;;
33066;SDS011;19428;49.024;8.366;2024-01-07T15:18:17;0.88;;;0.88;;
33066;SDS011;19428;49.024;8.366;2024-01-07T15:20:43;0.70;;;0.70;;
33066;SDS011;19428;49.024;8.366;2024-01-07T15:23:09;0.30;;;0.30;;
33066;SDS011;19428;49.024;8.366;2024-01-07T15:25:34;0.60;;;0.60;;
33066;SDS011;19428;49.024;8.366;2024-01-07T15:28:00;0.30;;;0.30;;
33066;SDS011;19428;49.024;8.366;2024-01-07T15:30:26;0.50;;;0.50;;
33066;SDS011;19428;49.024;8.366;2024-01-07T15:32:51;0.30;;;0.30;;
33066;SDS011;19428;49.024;8.366;2024-01-07T15:35:18;1.77;;;1.67;;
33066;SDS011;19428;49.024;8.366;2024-01-07T15:37:44;0.30;;;0.30;;
33066;SDS011;19428;49.024;8.366;2024-01-07T15:40:10;0.32;;;0.32;;
33066;SDS011;19428;49.024;8.366;2024-01-07T15:42:36;3.08;;;1.45;;
33066;SDS011;19428;49.024;8.366;2024-01-07T15:45:03;0.32;;;0.32;;
33066;SDS011;19428;49.024;8.366;2024-01-07T15:47:29;0.95;;;0.95;;
33066;SDS011;19428;49.024;8.366;2024-01-07T15:49:58;0.30;;;0.30;;
33066;SDS011;19428;49.024;8.366;2024-01-07T15:52:23;0.30;;;0.30;;
33066;SDS011;19428;49.024;8.366;2024-01-07T15:54:49;0.43;;;0.43;;
33066;SDS011;19428;49.024;8.366;2024-01-07T15:57:14;4.07;;;3.88;;
33066;SDS011;19428;49.024;8.366;2024-01-07T15:59:41;0.40;;;0.40;;
33066;SDS011;19428;49.024;8.366;2024-01-07T16:02:07;0.20;;;0.20;;
33066;SDS011;19428;49.024;8.366;2024-01-07T16:04:33;0.25;;;0.25;;
33066;SDS011;19428;49.024;8.366;2024-01-07T16:06:58;0.30;;;0.30;;
33066;SDS011;19428;49.024;8.366;2024-01-07T16:09:24;0.30;;;0.30;;
33066;SDS011;19428;49.024;8.366;2024-01-07T16:11:50;0.30;;;0.30;;
33066;SDS011;19428;49.024;8.366;2024-01-07T16:14:16;0.30;;;0.30;;
33066;SDS011;19428;49.024;8.366;2024-01-07T16:16:49;0.22;;;0.22;;
33066;SDS011;19428;49.024;8.366;2024-01-07T16:19:17;0.93;;;0.93;;
33066;SDS011;19428;49.024;8.366;2024-01-07T16:21:43;0.30;;;0.30;;